Time;durP1;ratioP1;P1;durP2;ratioP2;P2;SDS_P1;SDS_P2;PMS_P1;PMS_P2;Temp;Humidity;BMP_temperature;BMP_pressure;BME280_temperature;BME280_humidity;BME280_pressure;Samples;Min_cycle;Max_cycle;Signal;HPM_P1;HPM_P2
2021/12/11 00:01:11;;;;;;;25.63;14.63;;;-0.80;99.90;;;;;;4927132;29;20107;-80
2021/12/11 00:03:41;;;;;;;26.90;15.38;;;0.30;99.90;;;;;;4928651;29;20078;-80
2021/12/11 00:06:09;;;;;;;25.25;15.10;;;0.20;99.90;;;;;;4928858;29;20047;-80
2021/12/11 00:08:36;;;;;;;22.88;14.25;;;0.20;99.90;;;;;;4928758;29;20047;-79
2021/12/11 00:11:11;;;;;;;25.02;14.85;;;0.80;99.90;;;;;;4927875;29;20701;-80
2021/12/11 00:13:40;;;;;;;28.50;14.30;;;-0.20;99.90;;;;;;4927996;29;20511;-79
2021/12/11 00:16:10;;;;;;;21.17;13.15;;;-0.90;99.90;;;;;;4931516;29;20055;-80
2021/12/11 00:18:36;;;;;;;20.92;13.27;;;-0.90;99.90;;;;;;4928274;29;20883;-79
2021/12/11 00:21:08;;;;;;;24.15;14.13;;;0.40;99.90;;;;;;4908514;29;20097;-80
2021/12/11 00:23:51;;;;;;;22.65;12.93;;;-0.90;99.90;;;;;;4936401;29;20307;-80
2021/12/11 00:26:25;;;;;;;20.67;12.20;;;-0.90;99.90;;;;;;4919080;29;20051;-81
2021/12/11 00:28:52;;;;;;;23.92;13.50;;;-0.90;99.90;;;;;;4929998;29;20134;-80
2021/12/11 00:31:18;;;;;;;21.75;13.10;;;-0.10;99.90;;;;;;4917179;29;20435;-80
2021/12/11 00:33:47;;;;;;;24.58;14.15;;;-0.20;99.90;;;;;;4911564;29;20054;-81
2021/12/11 00:36:17;;;;;;;22.13;13.43;;;-0.60;99.90;;;;;;4945808;28;20046;-79
2021/12/11 00:38:47;;;;;;;23.63;12.57;;;0.00;99.90;;;;;;4928252;29;20371;-78
2021/12/11 00:41:14;;;;;;;26.15;13.55;;;0.40;99.90;;;;;;4929363;29;20086;-80
2021/12/11 00:43:42;;;;;;;22.00;12.57;;;0.50;99.90;;;;;;4931291;29;20083;-80
2021/12/11 00:46:12;;;;;;;28.60;13.73;;;-1.00;99.90;;;;;;4930129;29;20047;-79
2021/12/11 00:48:38;;;;;;;23.70;12.93;;;-1.00;99.90;;;;;;4915153;29;20446;-80
2021/12/11 00:51:14;;;;;;;21.58;11.95;;;-1.00;99.90;;;;;;4928073;29;20107;-79
2021/12/11 00:53:44;;;;;;;20.52;12.90;;;0.00;99.90;;;;;;4913174;29;20062;-81
2021/12/11 00:56:39;;;;;;;19.95;11.88;;;-1.00;99.90;;;;;;4930839;29;20055;-79
2021/12/11 00:59:09;;;;;;;18.80;12.52;;;-1.10;99.90;;;;;;4929856;29;20044;-80
2021/12/11 01:01:43;;;;;;;20.70;12.70;;;0.60;99.90;;;;;;4927773;29;20142;-80
2021/12/11 01:04:16;;;;;;;21.80;12.55;;;0.50;99.90;;;;;;4926950;29;20062;-81
2021/12/11 01:06:50;;;;;;;18.35;12.05;;;0.40;99.90;;;;;;4925507;29;20091;-81
2021/12/11 01:09:22;;;;;;;18.58;11.38;;;-1.10;99.90;;;;;;4928020;29;20106;-79
2021/12/11 01:11:56;;;;;;;19.55;12.00;;;-1.10;99.90;;;;;;4927399;29;20477;-80
2021/12/11 01:14:39;;;;;;;21.42;11.77;;;0.40;99.90;;;;;;4926660;29;20118;-80
2021/12/11 01:17:08;;;;;;;21.20;11.60;;;-1.20;99.90;;;;;;4945155;28;20043;-80
2021/12/11 01:19:38;;;;;;;20.30;11.77;;;0.40;99.90;;;;;;4933142;29;20145;-80
2021/12/11 01:22:20;;;;;;;19.83;11.25;;;-1.00;99.90;;;;;;4913435;29;20519;-79
2021/12/11 01:24:48;;;;;;;20.63;12.43;;;-1.20;99.90;;;;;;4928314;29;20063;-79
2021/12/11 01:27:17;;;;;;;23.38;13.95;;;-1.20;99.90;;;;;;4923404;29;20116;-79
2021/12/11 01:29:46;;;;;;;21.73;12.15;;;-1.20;99.90;;;;;;4929665;29;20051;-81
2021/12/11 01:32:15;;;;;;;20.05;12.00;;;0.40;99.90;;;;;;4928196;29;20079;-79
2021/12/11 01:34:44;;;;;;;18.27;11.75;;;-1.20;99.90;;;;;;4918649;29;20049;-79
2021/12/11 01:37:10;;;;;;;20.70;11.55;;;-0.80;99.90;;;;;;4930705;29;20489;-80
2021/12/11 01:39:39;;;;;;;21.08;11.63;;;0.00;99.90;;;;;;4915324;29;20055;-80
2021/12/11 01:42:15;;;;;;;18.85;11.57;;;-0.90;99.90;;;;;;4915679;29;20106;-79
2021/12/11 01:44:43;;;;;;;21.63;12.07;;;-1.20;99.90;;;;;;4949763;28;20083;-79
2021/12/11 01:47:18;;;;;;;21.23;13.05;;;-1.30;99.90;;;;;;4907574;29;20393;-79
2021/12/11 01:49:48;;;;;;;21.77;11.25;;;0.40;99.90;;;;;;4932399;29;20497;-79
2021/12/11 01:52:35;;;;;;;19.45;11.90;;;-1.30;99.90;;;;;;4929351;29;20055;-79
2021/12/11 01:55:03;;;;;;;;;;;0.20;99.90;;;;;;4916836;29;20054;-80
2021/12/11 01:57:30;;;;;;;18.38;10.02;;;0.10;99.90;;;;;;4925171;29;19930;-80
2021/12/11 02:00:18;;;;;;;22.05;13.68;;;-0.70;99.90;;;;;;4908934;29;20464;-80
2021/12/11 02:02:53;;;;;;;20.38;11.85;;;-1.30;99.90;;;;;;4927142;29;20058;-80
2021/12/11 02:05:24;;;;;;;18.20;11.32;;;-1.30;99.90;;;;;;4932597;29;20090;-79
2021/12/11 02:07:54;;;;;;;20.08;12.40;;;-0.30;99.90;;;;;;4927073;29;20039;-79
2021/12/11 02:10:23;;;;;;;18.73;11.05;;;0.10;99.90;;;;;;4909329;29;20490;-81
2021/12/11 02:12:50;;;;;;;20.67;10.98;;;-1.40;99.90;;;;;;4911051;29;20047;-80
2021/12/11 02:15:28;;;;;;;20.38;11.45;;;-0.10;99.90;;;;;;4932816;29;20815;-80
2021/12/11 02:17:59;;;;;;;18.38;11.18;;;-1.40;99.90;;;;;;4926198;29;20170;-79
2021/12/11 02:20:37;;;;;;;18.58;11.35;;;-1.40;99.90;;;;;;4928867;29;20114;-80
2021/12/11 02:23:05;;;;;;;18.42;10.55;;;-1.40;99.90;;;;;;4948968;28;20043;-79
2021/12/11 02:25:38;;;;;;;18.85;10.80;;;-0.20;99.90;;;;;;4935652;29;20062;-80
2021/12/11 02:28:16;;;;;;;21.25;11.85;;;-1.50;99.90;;;;;;4932495;29;20120;-79
2021/12/11 02:30:48;;;;;;;18.92;11.18;;;-1.50;99.90;;;;;;4934464;29;20051;-80
2021/12/11 02:33:45;;;;;;;19.67;11.48;;;-0.50;99.90;;;;;;4933136;29;20047;-80
2021/12/11 02:36:25;;;;;;;19.60;11.40;;;-1.50;99.90;;;;;;4933114;29;20125;-79
2021/12/11 02:38:51;;;;;;;19.20;11.15;;;-1.50;99.90;;;;;;4932120;29;20489;-80
2021/12/11 02:42:01;;;;;;;20.33;11.30;;;-0.20;99.90;;;;;;4936170;29;20047;-80
2021/12/11 02:44:43;;;;;;;18.65;10.90;;;-1.50;99.90;;;;;;4950508;29;20051;-80
2021/12/11 02:47:15;;;;;;;18.13;11.18;;;-1.30;99.90;;;;;;4935607;29;20047;-79
2021/12/11 02:50:13;;;;;;;17.73;10.63;;;-0.10;99.90;;;;;;4934608;29;20058;-79
2021/12/11 02:52:47;;;;;;;18.33;11.20;;;-1.60;99.90;;;;;;4913801;29;20485;-80
2021/12/11 02:55:29;;;;;;;19.02;11.57;;;-1.60;99.90;;;;;;4937720;29;20039;-80
2021/12/11 02:58:14;;;;;;;18.63;11.50;;;-1.50;99.90;;;;;;4940377;29;20050;-79
2021/12/11 03:00:45;;;;;;;18.38;12.20;;;-1.60;99.90;;;;;;4948095;28;20126;-79
2021/12/11 03:03:13;;;;;;;19.70;11.15;;;-1.00;99.90;;;;;;4951297;29;20059;-80
2021/12/11 03:05:51;;;;;;;17.60;11.48;;;-0.10;99.90;;;;;;4938038;29;20051;-79
2021/12/11 03:08:20;;;;;;;17.80;10.55;;;-1.70;99.90;;;;;;4931334;29;20051;-80
2021/12/11 03:10:56;;;;;;;21.05;11.00;;;-0.50;99.90;;;;;;4946832;28;20134;-80
2021/12/11 03:13:23;;;;;;;19.75;10.65;;;-1.70;99.90;;;;;;4933964;29;20079;-80
2021/12/11 03:15:50;;;;;;;18.98;11.05;;;-1.30;99.90;;;;;;4932744;29;20283;-80
2021/12/11 03:18:16;;;;;;;24.27;11.77;;;-1.80;99.90;;;;;;4931802;29;20467;-80
2021/12/11 03:20:44;;;;;;;19.10;10.18;;;-0.90;99.90;;;;;;4927984;29;20122;-80
2021/12/11 03:23:10;;;;;;;19.60;10.88;;;-1.80;99.90;;;;;;4903801;29;20050;-80
2021/12/11 03:25:38;;;;;;;19.55;11.88;;;-1.80;99.90;;;;;;4914387;29;20043;-81
2021/12/11 03:28:06;;;;;;;16.90;10.35;;;-0.80;99.90;;;;;;4947265;28;20504;-80
2021/12/11 03:30:36;;;;;;;16.77;10.70;;;-0.40;99.90;;;;;;4912818;29;20051;-80
2021/12/11 03:33:06;;;;;;;19.45;11.05;;;-1.90;99.90;;;;;;4929185;29;20397;-79
2021/12/11 03:35:33;;;;;;;16.73;10.23;;;-0.70;99.90;;;;;;4928764;29;20815;-79
2021/12/11 03:37:59;;;;;;;19.58;11.43;;;-1.10;99.90;;;;;;4900001;29;20445;-80
2021/12/11 03:40:25;;;;;;;18.10;11.00;;;-1.90;99.90;;;;;;4915178;29;20401;-80
2021/12/11 03:42:53;;;;;;;17.48;10.63;;;-1.90;99.90;;;;;;4928971;29;20525;-79
2021/12/11 03:45:24;;;;;;;18.25;10.88;;;-0.20;99.90;;;;;;4927889;29;20108;-81
2021/12/11 03:47:54;;;;;;;20.05;12.40;;;-1.20;99.90;;;;;;4911207;29;20058;-80
2021/12/11 03:50:22;;;;;;;19.38;11.48;;;-0.70;99.90;;;;;;4932484;29;20489;-80
2021/12/11 03:52:51;;;;;;;17.95;10.40;;;-0.90;99.90;;;;;;4934138;29;20063;-80
2021/12/11 03:55:26;;;;;;;16.27;9.93;;;-2.00;99.90;;;;;;4919422;29;20050;-79
2021/12/11 03:57:58;;;;;;;16.00;9.40;;;-2.00;99.90;;;;;;4932605;29;20134;-79
2021/12/11 04:00:26;;;;;;;16.17;9.63;;;-0.80;99.90;;;;;;4918686;29;20412;-79
2021/12/11 04:03:00;;;;;;;16.60;9.90;;;-2.00;99.90;;;;;;4929638;29;20044;-79
2021/12/11 04:05:25;;;;;;;16.00;9.45;;;-1.90;99.90;;;;;;4917780;29;20459;-79
2021/12/11 04:07:51;;;;;;;16.40;9.77;;;-2.00;99.90;;;;;;4931457;29;20170;-78
2021/12/11 04:10:19;;;;;;;18.13;9.90;;;-0.60;99.90;;;;;;4918048;29;20485;-79
2021/12/11 04:12:48;;;;;;;17.40;10.95;;;-2.10;99.90;;;;;;4926197;29;20051;-80
2021/12/11 04:15:15;;;;;;;17.02;10.93;;;-2.10;99.90;;;;;;4915267;29;20501;-79
2021/12/11 04:17:42;;;;;;;19.33;11.95;;;-2.10;99.90;;;;;;4916710;29;20051;-80
2021/12/11 04:20:12;;;;;;;16.55;10.68;;;-1.60;99.90;;;;;;4895569;29;20045;-79
2021/12/11 04:22:38;;;;;;;19.73;10.85;;;-2.10;99.90;;;;;;4927730;29;20047;-78
2021/12/11 04:25:06;;;;;;;25.08;11.65;;;-1.30;99.90;;;;;;4927995;29;20058;-80
2021/12/11 04:27:31;;;;;;;20.10;10.75;;;-2.10;99.90;;;;;;4942556;28;20055;-81
2021/12/11 04:29:57;;;;;;;15.45;10.18;;;-2.20;99.90;;;;;;4925673;29;20105;-79
2021/12/11 04:32:25;;;;;;;16.48;10.43;;;-2.20;99.90;;;;;;4931164;29;20051;-79
2021/12/11 04:34:51;;;;;;;18.63;10.68;;;-1.10;99.90;;;;;;4914542;29;20199;-79
2021/12/11 04:37:22;;;;;;;19.42;11.15;;;-1.70;99.90;;;;;;4944904;28;20477;-79
2021/12/11 04:39:57;;;;;;;19.05;10.95;;;-1.60;99.90;;;;;;4934756;29;20489;-80
2021/12/11 04:45:13;;;;;;;19.65;11.45;;;-2.30;99.90;;;;;;4913678;29;20063;-79
2021/12/11 04:47:46;;;;;;;19.20;10.87;;;-1.20;99.90;;;;;;4923905;29;20090;-80
2021/12/11 04:50:27;;;;;;;21.20;11.43;;;-2.30;99.90;;;;;;4917053;29;20055;-80
2021/12/11 05:00:42;;;;;;;19.00;11.07;;;-0.90;99.90;;;;;;4931393;29;20047;-79
2021/12/11 05:06:14;;;;;;;21.90;11.57;;;-1.10;99.90;;;;;;4945144;28;20504;-78
2021/12/11 05:11:21;;;;;;;21.65;12.48;;;-1.30;99.90;;;;;;4929720;29;20047;-80
2021/12/11 05:13:47;;;;;;;25.10;12.52;;;-2.20;99.90;;;;;;4904741;29;20070;-79
2021/12/11 05:16:16;;;;;;;19.35;11.82;;;-0.80;99.90;;;;;;4917910;29;20047;-79
2021/12/11 05:18:44;;;;;;;22.80;13.13;;;-2.50;99.90;;;;;;4948741;28;20059;-79
2021/12/11 05:21:15;;;;;;;22.58;12.02;;;-1.50;99.90;;;;;;4913329;29;20058;-80
2021/12/11 05:23:42;;;;;;;18.77;11.48;;;-2.40;99.90;;;;;;4927478;29;20083;-80
2021/12/11 05:26:07;;;;;;;19.65;12.07;;;-2.20;99.90;;;;;;4909572;29;20209;-79
2021/12/11 05:28:33;;;;;;;20.00;11.43;;;-2.40;99.90;;;;;;4927851;29;20094;-80
2021/12/11 05:31:03;;;;;;;21.15;11.68;;;-1.80;99.90;;;;;;4916081;29;20050;-80
2021/12/11 05:33:29;;;;;;;29.63;14.20;;;-2.40;99.90;;;;;;4929495;29;20066;-79
2021/12/11 05:35:55;;;;;;;22.13;12.27;;;-0.90;99.90;;;;;;4928202;29;20047;-79
2021/12/11 05:38:22;;;;;;;40.97;13.95;;;-2.40;99.90;;;;;;4929592;29;20150;-79
2021/12/11 05:40:58;;;;;;;26.42;14.05;;;-0.90;99.90;;;;;;4918214;29;20378;-80
2021/12/11 05:43:25;;;;;;;23.30;12.68;;;-2.40;99.90;;;;;;4932988;29;20055;-80
2021/12/11 05:45:51;;;;;;;72.53;16.40;;;-0.80;99.90;;;;;;4933480;29;20063;-79
2021/12/11 05:48:17;;;;;;;45.47;14.35;;;-0.50;99.90;;;;;;4928107;29;20079;-77
2021/12/11 05:50:50;;;;;;;29.40;14.45;;;-1.20;99.90;;;;;;4925666;29;20098;-79
2021/12/11 05:53:17;;;;;;;253.75;25.80;;;-2.30;99.90;;;;;;4930633;29;20055;-80
2021/12/11 05:55:46;;;;;;;98.60;17.23;;;-1.40;99.90;;;;;;4936947;29;20051;-80
2021/12/11 05:58:14;;;;;;;55.47;15.55;;;-2.00;99.90;;;;;;4931687;29;20047;-79
2021/12/11 06:00:48;;;;;;;26.70;14.25;;;-0.70;99.90;;;;;;4930217;29;21425;-79
2021/12/11 06:03:14;;;;;;;142.18;19.38;;;-2.30;99.90;;;;;;4929579;29;20122;-79
2021/12/11 06:05:41;;;;;;;237.40;24.13;;;-1.00;99.90;;;;;;4930117;29;20043;-79
2021/12/11 06:08:08;;;;;;;84.38;17.40;;;-0.90;99.90;;;;;;4916986;29;20099;-80
2021/12/11 06:10:35;;;;;;;217.88;22.27;;;-0.60;99.90;;;;;;4920577;29;20376;-79
2021/12/11 06:13:02;;;;;;;75.20;15.45;;;-2.20;99.90;;;;;;4929630;29;20059;-80
2021/12/11 06:15:29;;;;;;;28.30;12.85;;;-2.30;99.90;;;;;;4933296;29;20126;-80
2021/12/11 06:17:55;;;;;;;30.10;12.57;;;-2.30;99.90;;;;;;4916189;29;20043;-80
2021/12/11 06:20:30;;;;;;;145.27;16.42;;;-2.30;99.90;;;;;;4912534;29;20118;-79
2021/12/11 06:22:56;;;;;;;124.75;15.90;;;-0.80;99.90;;;;;;4904692;29;20103;-80
2021/12/11 06:25:30;;;;;;;22.83;11.45;;;-2.30;99.90;;;;;;4929880;29;20047;-80
2021/12/11 06:27:56;;;;;;;75.85;14.60;;;-1.40;99.90;;;;;;4934235;29;20114;-80
2021/12/11 06:30:22;;;;;;;79.68;14.02;;;-1.50;99.90;;;;;;4932370;29;20083;-79
2021/12/11 06:32:50;;;;;;;60.72;13.18;;;-2.30;99.90;;;;;;4932749;29;20055;-79
2021/12/11 06:35:34;;;;;;;79.05;14.95;;;-2.30;99.90;;;;;;4931271;29;20059;-80
2021/12/11 06:38:00;;;;;;;66.13;12.88;;;-2.30;99.90;;;;;;4930011;29;20128;-79
2021/12/11 06:40:27;;;;;;;102.60;16.20;;;-2.40;99.90;;;;;;4919247;29;20039;-79
2021/12/11 06:42:53;;;;;;;25.80;12.05;;;-1.10;99.90;;;;;;4932010;29;20412;-80
2021/12/11 06:45:22;;;;;;;33.90;11.65;;;-0.70;99.90;;;;;;4926355;29;20051;-79
2021/12/11 06:47:47;;;;;;;176.32;20.10;;;-2.30;99.90;;;;;;4932131;29;20039;-79
2021/12/11 06:50:14;;;;;;;186.35;21.55;;;-2.60;99.90;;;;;;4946090;29;20078;-77
2021/12/11 06:52:40;;;;;;;116.15;18.35;;;-2.40;99.90;;;;;;4918340;29;20044;-78
2021/12/11 06:55:08;;;;;;;163.52;22.83;;;-0.80;99.90;;;;;;4932046;29;20040;-77
2021/12/11 06:57:34;;;;;;;128.90;20.67;;;-2.30;99.90;;;;;;4915888;29;20492;-78
2021/12/11 07:00:01;;;;;;;28.27;15.18;;;-2.40;99.90;;;;;;4944945;29;20035;-78
2021/12/11 07:02:26;;;;;;;50.42;16.05;;;-2.40;99.90;;;;;;4926642;29;20505;-77
2021/12/11 07:04:55;;;;;;;55.97;16.02;;;-2.30;99.90;;;;;;4941145;28;20102;-77
2021/12/11 07:07:24;;;;;;;296.02;35.45;;;-0.90;99.90;;;;;;4932034;29;20070;-78
2021/12/11 07:09:52;;;;;;;29.17;14.27;;;-2.00;99.90;;;;;;4928239;29;20058;-77
2021/12/11 07:12:19;;;;;;;72.05;17.85;;;-2.30;99.90;;;;;;4931389;29;22125;-78
2021/12/11 07:14:46;;;;;;;43.33;16.30;;;-1.60;99.90;;;;;;4927818;29;20051;-78
2021/12/11 07:17:12;;;;;;;38.60;14.07;;;-2.30;99.90;;;;;;4928139;29;20058;-79
2021/12/11 07:19:38;;;;;;;51.08;15.63;;;-0.50;99.90;;;;;;4929074;29;20505;-77
2021/12/11 07:22:04;;;;;;;28.17;13.85;;;-2.30;99.90;;;;;;4909920;29;20090;-77
2021/12/11 07:24:41;;;;;;;154.73;22.35;;;-1.60;99.90;;;;;;4929263;29;20151;-78
2021/12/11 07:27:08;;;;;;;250.40;28.20;;;-2.20;99.90;;;;;;4912696;29;20079;-79
2021/12/11 07:29:36;;;;;;;86.38;19.65;;;-0.50;99.90;;;;;;4912911;29;20058;-80
2021/12/11 07:32:03;;;;;;;88.90;19.38;;;-2.10;99.90;;;;;;4926072;29;20293;-80
2021/12/11 07:34:29;;;;;;;25.27;14.07;;;-2.00;99.90;;;;;;4926290;29;20047;-79
2021/12/11 07:36:55;;;;;;;20.95;13.70;;;-1.60;99.90;;;;;;4925227;29;20130;-80
2021/12/11 07:39:22;;;;;;;24.13;14.40;;;-1.50;99.90;;;;;;4927665;29;20134;-79
2021/12/11 07:41:49;;;;;;;38.90;17.95;;;-2.00;99.90;;;;;;4911949;29;20058;-80
2021/12/11 07:44:16;;;;;;;35.63;17.00;;;-0.40;99.90;;;;;;4943421;29;20047;-79
2021/12/11 07:46:43;;;;;;;28.38;15.68;;;-2.00;99.90;;;;;;4924928;29;20048;-80
2021/12/11 07:49:08;;;;;;;26.10;15.02;;;-2.00;99.90;;;;;;4912634;29;20043;-78
2021/12/11 07:51:36;;;;;;;23.67;15.05;;;-2.00;99.90;;;;;;4910206;29;20079;-78
2021/12/11 07:54:04;;;;;;;32.35;17.05;;;-0.60;99.90;;;;;;4929645;29;20098;-79
2021/12/11 07:56:30;;;;;;;32.25;16.40;;;-1.90;99.90;;;;;;4893700;29;20043;-80
2021/12/11 07:58:59;;;;;;;29.67;16.75;;;-0.80;99.90;;;;;;4927266;29;20048;-79
2021/12/11 08:01:26;;;;;;;34.55;17.95;;;-1.90;99.90;;;;;;4931311;29;20083;-79
2021/12/11 08:03:51;;;;;;;51.50;21.13;;;-1.80;99.90;;;;;;4930949;29;20058;-79
2021/12/11 08:06:17;;;;;;;49.45;22.85;;;-1.70;99.90;;;;;;4914115;29;20051;-79
2021/12/11 08:08:45;;;;;;;45.83;21.42;;;-1.00;99.90;;;;;;4910233;29;20044;-80
2021/12/11 08:11:17;;;;;;;47.33;22.45;;;-1.20;99.90;;;;;;4911902;29;20130;-79
2021/12/11 08:13:45;;;;;;;49.20;23.23;;;-1.20;99.90;;;;;;4926017;29;20445;-79
2021/12/11 08:16:13;;;;;;;45.03;22.83;;;0.30;99.90;;;;;;4924968;28;20127;-77
2021/12/11 08:18:39;;;;;;;47.85;21.20;;;0.40;99.90;;;;;;4931716;29;20040;-77
2021/12/11 08:21:06;;;;;;;38.28;20.70;;;-0.90;99.90;;;;;;4924513;29;20128;-80
2021/12/11 08:23:32;;;;;;;66.05;27.52;;;-0.90;99.90;;;;;;4930328;29;20162;-77
2021/12/11 08:25:59;;;;;;;72.43;29.15;;;0.50;99.90;;;;;;4924833;29;20040;-78
2021/12/11 08:28:29;;;;;;;77.53;29.58;;;1.00;99.90;;;;;;4927062;29;20058;-78
2021/12/11 08:30:58;;;;;;;88.32;31.98;;;0.80;99.90;;;;;;4924043;29;20134;-77
2021/12/11 08:33:24;;;;;;;93.88;34.67;;;-0.10;99.90;;;;;;4926336;29;20057;-79
2021/12/11 08:35:52;;;;;;;89.93;37.15;;;2.20;99.90;;;;;;4929882;29;20047;-77
2021/12/11 08:38:18;;;;;;;90.32;38.20;;;1.60;99.90;;;;;;4930425;29;20778;-79
2021/12/11 08:40:49;;;;;;;80.78;36.08;;;2.30;99.90;;;;;;4926743;29;20043;-80
2021/12/11 08:43:18;;;;;;;71.93;35.08;;;3.00;99.90;;;;;;4923833;28;20544;-80
2021/12/11 08:45:56;;;;;;;62.00;33.63;;;3.70;99.90;;;;;;4915875;29;20103;-80
2021/12/11 08:48:24;;;;;;;56.72;30.75;;;4.40;99.90;;;;;;4931470;29;20098;-80
2021/12/11 08:50:53;;;;;;;54.30;31.42;;;5.60;99.90;;;;;;4923864;29;20051;-80
2021/12/11 08:53:20;;;;;;;56.97;32.03;;;5.30;99.90;;;;;;4910115;29;20054;-81
2021/12/11 08:55:49;;;;;;;53.35;31.13;;;5.10;99.90;;;;;;4928160;29;20062;-81
2021/12/11 08:58:16;;;;;;;51.90;30.20;;;5.50;99.90;;;;;;4931679;29;20082;-80
2021/12/11 09:04:26;;;;;;;48.47;27.08;;;4.10;99.90;;;;;;4883970;29;20069;-81
2021/12/11 09:07:16;;;;;;;41.13;22.02;;;3.70;99.90;;;;;;4854750;29;20105;-80
2021/12/11 09:09:47;;;;;;;41.80;19.83;;;2.00;99.90;;;;;;4897790;29;20066;-81
2021/12/11 09:12:17;;;;;;;42.90;20.50;;;3.40;99.90;;;;;;4887971;29;20541;-81
2021/12/11 09:15:11;;;;;;;37.40;18.80;;;3.30;99.90;;;;;;4904061;29;20486;-81
2021/12/11 09:17:48;;;;;;;36.13;19.33;;;4.10;99.90;;;;;;4889226;29;20127;-80
2021/12/11 09:20:26;;;;;;;38.92;19.08;;;3.10;99.90;;;;;;4903243;29;20139;-82
2021/12/11 09:23:04;;;;;;;39.50;17.40;;;3.20;99.90;;;;;;4902640;29;20561;-78
2021/12/11 09:25:49;;;;;;;40.58;18.90;;;3.40;99.90;;;;;;4918549;29;20048;-79
2021/12/11 09:28:39;;;;;;;38.50;17.92;;;3.50;99.90;;;;;;4902961;29;20056;-78
2021/12/11 09:31:18;;;;;;;38.67;16.88;;;3.60;99.90;;;;;;4891374;29;20059;-82
2021/12/11 09:34:06;;;;;;;33.25;15.65;;;3.70;99.90;;;;;;4917325;29;20051;-80
2021/12/11 09:36:42;;;;;;;38.72;17.20;;;3.80;99.90;;;;;;4903292;29;20136;-81
2021/12/11 09:39:16;;;;;;;39.53;16.75;;;3.60;99.90;;;;;;4902317;29;20063;-79
2021/12/11 09:41:42;;;;;;;31.20;16.15;;;3.60;99.90;;;;;;4918401;29;20060;-79
2021/12/11 09:44:34;;;;;;;41.08;16.17;;;3.70;99.90;;;;;;4902889;29;20107;-78
2021/12/11 09:47:08;;;;;;;27.92;15.43;;;3.70;99.90;;;;;;4908550;29;20083;-77
2021/12/11 09:49:44;;;;;;;27.13;13.65;;;4.50;99.90;;;;;;4902383;29;20045;-78
2021/12/11 09:52:23;;;;;;;26.42;12.95;;;4.10;99.90;;;;;;4901077;29;20112;-78
2021/12/11 09:54:56;;;;;;;30.60;13.18;;;5.20;99.90;;;;;;4917825;29;20052;-78
2021/12/11 09:57:25;;;;;;;23.23;12.88;;;5.00;99.90;;;;;;4902223;29;20082;-77
2021/12/11 09:59:54;;;;;;;28.90;13.07;;;4.00;99.90;;;;;;4909033;29;20056;-79
2021/12/11 10:02:24;;;;;;;26.90;13.73;;;4.90;99.90;;;;;;4902794;29;20131;-77
2021/12/11 10:05:01;;;;;;;21.10;12.70;;;5.40;99.90;;;;;;4913655;29;20410;-79
2021/12/11 10:07:36;;;;;;;23.73;11.50;;;6.40;99.90;;;;;;4927795;29;20425;-78
2021/12/11 10:10:18;;;;;;;20.08;11.80;;;6.70;99.90;;;;;;4921034;29;20048;-78
2021/12/11 10:12:51;;;;;;;25.88;11.98;;;6.80;99.90;;;;;;4919784;29;20051;-78
2021/12/11 10:15:29;;;;;;;20.70;12.07;;;6.70;99.90;;;;;;4919735;29;20569;-78
2021/12/11 10:18:05;;;;;;;25.33;11.82;;;6.50;99.90;;;;;;4934620;29;20460;-79
2021/12/11 10:20:45;;;;;;;22.10;11.60;;;6.30;99.90;;;;;;4920770;29;20052;-77
2021/12/11 10:23:16;;;;;;;27.63;12.82;;;6.00;99.90;;;;;;4926903;29;20189;-78
2021/12/11 10:25:45;;;;;;;22.52;11.13;;;5.70;99.90;;;;;;4927895;29;20091;-78
2021/12/11 10:28:17;;;;;;;26.50;12.02;;;5.60;99.90;;;;;;4920578;29;20414;-78
2021/12/11 10:30:48;;;;;;;23.90;10.90;;;5.90;99.90;;;;;;4922187;29;20114;-78
2021/12/11 10:33:16;;;;;;;22.55;11.50;;;5.70;99.90;;;;;;4921412;29;20136;-77
2021/12/11 10:35:46;;;;;;;21.45;10.93;;;5.50;99.90;;;;;;4920604;29;20082;-78
2021/12/11 10:38:12;;;;;;;19.63;11.10;;;5.60;99.90;;;;;;4936592;29;20046;-78
2021/12/11 10:40:43;;;;;;;19.10;10.93;;;5.90;99.90;;;;;;4907142;29;20051;-78
2021/12/11 10:43:22;;;;;;;22.15;11.77;;;5.90;99.90;;;;;;4908235;29;20079;-77
2021/12/11 10:45:51;;;;;;;23.52;11.40;;;5.70;99.90;;;;;;4924045;29;20139;-78
2021/12/11 10:48:24;;;;;;;19.92;10.73;;;5.40;99.90;;;;;;4930653;29;20070;-77
2021/12/11 10:50:55;;;;;;;26.90;11.85;;;5.20;99.90;;;;;;4941158;29;20052;-77
2021/12/11 10:53:23;;;;;;;21.42;12.43;;;5.00;99.90;;;;;;4924920;29;20078;-77
2021/12/11 10:55:52;;;;;;;23.48;13.20;;;5.00;99.90;;;;;;4931750;29;20081;-78
2021/12/11 10:58:22;;;;;;;26.17;12.38;;;5.20;99.90;;;;;;4930763;29;20620;-77
2021/12/11 11:01:04;;;;;;;27.20;12.77;;;5.20;99.90;;;;;;4907790;29;20486;-77
2021/12/11 11:03:34;;;;;;;21.63;12.63;;;5.20;99.90;;;;;;4926086;29;20087;-77
2021/12/11 11:06:00;;;;;;;24.48;12.35;;;5.30;99.90;;;;;;4933470;29;20094;-78
2021/12/11 11:08:26;;;;;;;20.23;11.35;;;6.00;99.90;;;;;;4927829;29;20078;-77
2021/12/11 11:10:58;;;;;;;22.80;12.15;;;5.40;99.90;;;;;;4927403;29;20148;-77
2021/12/11 11:13:25;;;;;;;22.55;12.00;;;5.40;99.90;;;;;;4934079;29;20055;-77
2021/12/11 11:15:52;;;;;;;24.85;13.00;;;5.30;99.90;;;;;;4925425;29;20056;-77
2021/12/11 11:18:19;;;;;;;20.83;13.07;;;5.30;99.90;;;;;;4910526;29;20055;-78
2021/12/11 11:20:55;;;;;;;24.65;12.77;;;5.40;99.90;;;;;;4918281;29;20055;-77
2021/12/11 11:23:20;;;;;;;24.40;12.97;;;5.20;99.90;;;;;;4926099;29;20059;-77
2021/12/11 11:25:50;;;;;;;21.60;12.77;;;5.20;99.90;;;;;;4926030;29;20047;-77
2021/12/11 11:28:18;;;;;;;26.20;12.77;;;5.60;99.90;;;;;;4941707;29;20131;-77
2021/12/11 11:30:48;;;;;;;21.10;12.68;;;5.20;99.90;;;;;;4932759;29;20047;-78
2021/12/11 11:33:15;;;;;;;26.98;13.23;;;5.20;99.90;;;;;;4925127;29;20110;-77
2021/12/11 11:35:43;;;;;;;24.98;12.55;;;5.40;99.90;;;;;;4909715;29;20055;-77
2021/12/11 11:38:14;;;;;;;22.73;13.15;;;5.30;99.90;;;;;;4926245;29;20043;-81
2021/12/11 11:40:47;;;;;;;24.38;13.38;;;5.30;99.90;;;;;;4926524;29;20047;-77
2021/12/11 11:43:14;;;;;;;20.90;12.20;;;5.30;99.90;;;;;;4924396;29;20050;-78
2021/12/11 11:45:40;;;;;;;24.92;13.80;;;5.30;99.90;;;;;;4941096;29;20047;-77
2021/12/11 11:48:08;;;;;;;26.77;13.63;;;6.50;99.90;;;;;;4925589;29;20043;-78
2021/12/11 11:50:38;;;;;;;31.52;14.13;;;5.30;99.90;;;;;;4933819;29;20163;-78
2021/12/11 11:53:05;;;;;;;24.67;13.75;;;6.70;99.90;;;;;;4925021;29;20059;-77
2021/12/11 11:55:38;;;;;;;21.73;12.98;;;5.30;99.90;;;;;;4933039;29;20074;-78
2021/12/11 11:58:05;;;;;;;27.17;13.65;;;5.30;99.90;;;;;;4933020;29;20686;-78
2021/12/11 12:00:41;;;;;;;26.52;12.70;;;6.20;99.90;;;;;;4927455;29;20066;-78
2021/12/11 12:03:11;;;;;;;22.40;12.05;;;5.30;99.90;;;;;;4941037;29;20142;-79
2021/12/11 12:05:39;;;;;;;21.85;11.45;;;5.30;99.90;;;;;;4925531;29;20051;-78
2021/12/11 12:08:07;;;;;;;23.15;11.52;;;5.40;99.90;;;;;;4925535;29;20078;-77
2021/12/11 12:10:33;;;;;;;22.10;11.48;;;6.40;99.90;;;;;;4933964;29;20495;-77
2021/12/11 12:12:59;;;;;;;21.10;10.80;;;4.40;99.90;;;;;;4909979;29;20059;-79
2021/12/11 12:15:32;;;;;;;17.13;10.25;;;5.50;99.90;;;;;;4924703;29;20386;-76
2021/12/11 12:17:58;;;;;;;20.20;11.63;;;6.00;99.90;;;;;;4924309;29;20054;-77
2021/12/11 12:20:25;;;;;;;23.27;10.98;;;6.30;99.90;;;;;;4924131;29;20051;-79
2021/12/11 12:22:53;;;;;;;20.08;10.75;;;5.70;99.90;;;;;;4909873;29;20048;-77
2021/12/11 12:25:20;;;;;;;25.30;12.25;;;5.50;99.90;;;;;;4931740;29;20489;-77
2021/12/11 12:27:46;;;;;;;25.98;12.57;;;6.30;99.90;;;;;;4908771;29;20465;-77
2021/12/11 12:30:18;;;;;;;24.38;12.35;;;5.50;99.90;;;;;;4924893;29;20066;-76
2021/12/11 12:32:45;;;;;;;21.52;12.35;;;5.60;99.90;;;;;;4932863;29;20062;-75
2021/12/11 12:35:14;;;;;;;23.83;12.25;;;6.20;99.90;;;;;;4931304;29;20106;-77
2021/12/11 12:37:41;;;;;;;21.33;10.95;;;6.00;99.90;;;;;;4932446;29;20106;-78
2021/12/11 12:40:14;;;;;;;22.88;11.35;;;5.60;99.90;;;;;;4926015;29;20131;-77
2021/12/11 12:42:51;;;;;;;22.55;10.73;;;5.60;99.90;;;;;;4925995;29;20051;-77
2021/12/11 12:45:17;;;;;;;24.50;11.00;;;5.60;99.90;;;;;;4925263;28;20117;-77
2021/12/11 12:47:51;;;;;;;23.08;11.48;;;5.60;99.90;;;;;;4925494;28;20489;-79
2021/12/11 12:50:22;;;;;;;22.25;9.30;;;5.90;99.90;;;;;;4913454;29;20136;-79
2021/12/11 12:52:48;;;;;;;22.17;9.20;;;5.70;99.90;;;;;;4930177;29;20094;-78
2021/12/11 12:55:27;;;;;;;20.88;9.50;;;6.10;99.90;;;;;;4909452;29;20055;-80
2021/12/11 12:57:55;;;;;;;18.35;8.60;;;5.90;99.90;;;;;;4930988;29;20075;-80
2021/12/11 13:00:30;;;;;;;18.02;9.57;;;5.80;99.90;;;;;;4924945;28;20135;-80
2021/12/11 13:03:01;;;;;;;17.30;9.68;;;5.80;99.90;;;;;;4906807;29;20087;-80
2021/12/11 13:05:36;;;;;;;16.30;9.23;;;6.00;99.90;;;;;;4923554;29;20116;-79
2021/12/11 13:08:09;;;;;;;20.08;9.23;;;6.00;99.90;;;;;;4923650;29;20059;-79